sensor_id;sensor_type;location;lat;lon;timestamp;P1;durP1;ratioP1;P2;durP2;ratioP2
78013;SDS011;67222;50.182;8.734;2023-06-10T05:30:29;9.15;;;6.68;;
78013;SDS011;67222;50.182;8.734;2023-06-10T05:32:55;9.85;;;6.32;;
78013;SDS011;67222;50.182;8.734;2023-06-10T05:35:21;8.60;;;6.43;;
78013;SDS011;67222;50.182;8.734;2023-06-10T05:37:46;9.00;;;6.75;;
78013;SDS011;67222;50.182;8.734;2023-06-10T05:40:12;9.40;;;7.03;;
78013;SDS011;67222;50.182;8.734;2023-06-10T05:42:38;8.53;;;6.10;;
78013;SDS011;67222;50.182;8.734;2023-06-10T05:45:03;7.50;;;6.17;;
78013;SDS011;67222;50.182;8.734;2023-06-10T05:47:31;7.85;;;6.30;;
78013;SDS011;67222;50.182;8.734;2023-06-10T05:49:56;8.07;;;6.43;;
78013;SDS011;67222;50.182;8.734;2023-06-10T05:52:21;8.23;;;6.63;;
78013;SDS011;67222;50.182;8.734;2023-06-10T05:54:47;9.50;;;7.00;;
78013;SDS011;67222;50.182;8.734;2023-06-10T05:57:12;9.97;;;6.43;;
78013;SDS011;67222;50.182;8.734;2023-06-10T05:59:37;11.15;;;6.95;;
78013;SDS011;67222;50.182;8.734;2023-06-10T06:02:03;7.57;;;5.97;;
78013;SDS011;67222;50.182;8.734;2023-06-10T06:04:28;9.00;;;6.95;;
78013;SDS011;67222;50.182;8.734;2023-06-10T06:06:53;8.20;;;6.10;;
78013;SDS011;67222;50.182;8.734;2023-06-10T06:09:19;7.47;;;6.10;;
78013;SDS011;67222;50.182;8.734;2023-06-10T06:11:44;7.77;;;6.13;;
78013;SDS011;67222;50.182;8.734;2023-06-10T06:14:09;9.00;;;5.90;;
78013;SDS011;67222;50.182;8.734;2023-06-10T06:16:35;7.63;;;6.22;;
78013;SDS011;67222;50.182;8.734;2023-06-10T06:19:00;8.43;;;6.30;;
78013;SDS011;67222;50.182;8.734;2023-06-10T06:21:25;7.47;;;6.03;;
78013;SDS011;67222;50.182;8.734;2023-06-10T06:23:51;7.13;;;5.83;;
78013;SDS011;67222;50.182;8.734;2023-06-10T06:26:16;8.27;;;6.35;;
78013;SDS011;67222;50.182;8.734;2023-06-10T06:28:41;7.68;;;5.72;;
78013;SDS011;67222;50.182;8.734;2023-06-10T06:31:07;7.50;;;5.73;;
78013;SDS011;67222;50.182;8.734;2023-06-10T06:33:32;8.82;;;5.93;;
78013;SDS011;67222;50.182;8.734;2023-06-10T06:35:57;7.78;;;6.40;;
78013;SDS011;67222;50.182;8.734;2023-06-10T06:38:25;8.93;;;6.15;;
78013;SDS011;67222;50.182;8.734;2023-06-10T06:40:50;7.18;;;6.05;;
78013;SDS011;67222;50.182;8.734;2023-06-10T06:43:15;9.30;;;6.00;;
78013;SDS011;67222;50.182;8.734;2023-06-10T06:45:42;8.18;;;5.50;;
78013;SDS011;67222;50.182;8.734;2023-06-10T06:48:07;7.70;;;5.97;;
78013;SDS011;67222;50.182;8.734;2023-06-10T06:50:32;8.27;;;5.50;;
78013;SDS011;67222;50.182;8.734;2023-06-10T06:52:58;6.40;;;5.60;;
78013;SDS011;67222;50.182;8.734;2023-06-10T06:55:23;7.93;;;5.83;;
78013;SDS011;67222;50.182;8.734;2023-06-10T06:57:48;7.63;;;5.87;;
78013;SDS011;67222;50.182;8.734;2023-06-10T07:00:14;8.23;;;5.78;;
78013;SDS011;67222;50.182;8.734;2023-06-10T07:02:39;9.13;;;5.38;;
78013;SDS011;67222;50.182;8.734;2023-06-10T07:05:05;7.47;;;6.00;;
78013;SDS011;67222;50.182;8.734;2023-06-10T07:07:31;9.63;;;6.05;;
78013;SDS011;67222;50.182;8.734;2023-06-10T07:09:56;7.93;;;6.17;;
78013;SDS011;67222;50.182;8.734;2023-06-10T07:12:21;8.03;;;6.40;;
78013;SDS011;67222;50.182;8.734;2023-06-10T07:14:49;11.10;;;5.47;;
78013;SDS011;67222;50.182;8.734;2023-06-10T07:17:15;7.25;;;5.20;;
78013;SDS011;67222;50.182;8.734;2023-06-10T07:19:40;10.43;;;5.60;;
78013;SDS011;67222;50.182;8.734;2023-06-10T07:22:06;8.67;;;6.03;;
78013;SDS011;67222;50.182;8.734;2023-06-10T07:24:31;7.00;;;5.57;;
78013;SDS011;67222;50.182;8.734;2023-06-10T07:26:56;8.00;;;5.63;;
78013;SDS011;67222;50.182;8.734;2023-06-10T07:29:22;6.67;;;5.23;;
78013;SDS011;67222;50.182;8.734;2023-06-10T07:31:47;6.53;;;5.27;;
78013;SDS011;67222;50.182;8.734;2023-06-10T07:34:12;7.43;;;5.43;;
78013;SDS011;67222;50.182;8.734;2023-06-10T07:36:37;6.70;;;4.90;;
78013;SDS011;67222;50.182;8.734;2023-06-10T07:39:04;7.28;;;5.97;;
78013;SDS011;67222;50.182;8.734;2023-06-10T07:41:29;8.55;;;5.35;;
78013;SDS011;67222;50.182;8.734;2023-06-10T07:43:55;7.50;;;5.70;;
78013;SDS011;67222;50.182;8.734;2023-06-10T07:46:21;7.13;;;5.95;;
78013;SDS011;67222;50.182;8.734;2023-06-10T07:48:47;6.57;;;5.50;;
78013;SDS011;67222;50.182;8.734;2023-06-10T07:51:13;10.88;;;5.68;;
78013;SDS011;67222;50.182;8.734;2023-06-10T07:53:40;8.23;;;6.18;;
78013;SDS011;67222;50.182;8.734;2023-06-10T07:56:06;7.47;;;5.45;;
78013;SDS011;67222;50.182;8.734;2023-06-10T07:58:31;7.30;;;6.00;;
78013;SDS011;67222;50.182;8.734;2023-06-10T08:00:56;7.17;;;6.03;;
78013;SDS011;67222;50.182;8.734;2023-06-10T08:03:21;7.73;;;5.63;;
78013;SDS011;67222;50.182;8.734;2023-06-10T08:05:47;7.30;;;5.80;;
78013;SDS011;67222;50.182;8.734;2023-06-10T08:08:12;8.35;;;5.40;;
78013;SDS011;67222;50.182;8.734;2023-06-10T08:10:38;7.22;;;5.43;;
78013;SDS011;67222;50.182;8.734;2023-06-10T08:13:03;7.22;;;5.90;;
78013;SDS011;67222;50.182;8.734;2023-06-10T08:15:29;7.18;;;5.68;;
78013;SDS011;67222;50.182;8.734;2023-06-10T08:17:54;6.83;;;5.60;;
78013;SDS011;67222;50.182;8.734;2023-06-10T08:20:19;7.30;;;6.00;;
78013;SDS011;67222;50.182;8.734;2023-06-10T08:22:44;6.75;;;6.05;;
78013;SDS011;67222;50.182;8.734;2023-06-10T08:25:10;6.90;;;5.43;;
78013;SDS011;67222;50.182;8.734;2023-06-10T08:27:35;9.20;;;6.03;;
78013;SDS011;67222;50.182;8.734;2023-06-10T08:30:00;6.35;;;5.60;;
78013;SDS011;67222;50.182;8.734;2023-06-10T08:32:26;8.65;;;6.10;;
78013;SDS011;67222;50.182;8.734;2023-06-10T08:34:51;9.98;;;5.80;;
78013;SDS011;67222;50.182;8.734;2023-06-10T08:37:17;10.27;;;6.05;;
78013;SDS011;67222;50.182;8.734;2023-06-10T08:39:42;8.35;;;5.75;;
78013;SDS011;67222;50.182;8.734;2023-06-10T08:44:53;8.00;;;6.22;;
78013;SDS011;67222;50.182;8.734;2023-06-10T08:47:20;8.43;;;6.40;;
78013;SDS011;67222;50.182;8.734;2023-06-10T08:49:47;6.68;;;5.88;;
78013;SDS011;67222;50.182;8.734;2023-06-10T08:52:17;7.35;;;5.65;;
78013;SDS011;67222;50.182;8.734;2023-06-10T08:55:44;7.05;;;5.47;;
78013;SDS011;67222;50.182;8.734;2023-06-10T08:57:59;7.63;;;5.50;;
78013;SDS011;67222;50.182;8.734;2023-06-10T09:00:26;6.65;;;5.57;;
78013;SDS011;67222;50.182;8.734;2023-06-10T09:02:52;6.22;;;5.20;;
78013;SDS011;67222;50.182;8.734;2023-06-10T09:05:17;7.30;;;5.40;;
78013;SDS011;67222;50.182;8.734;2023-06-10T09:07:43;6.68;;;5.70;;
78013;SDS011;67222;50.182;8.734;2023-06-10T09:10:10;6.68;;;5.63;;
78013;SDS011;67222;50.182;8.734;2023-06-10T09:12:36;7.13;;;5.75;;
78013;SDS011;67222;50.182;8.734;2023-06-10T09:15:03;9.75;;;5.78;;
78013;SDS011;67222;50.182;8.734;2023-06-10T09:17:29;7.28;;;5.75;;
78013;SDS011;67222;50.182;8.734;2023-06-10T09:19:54;6.50;;;5.40;;
78013;SDS011;67222;50.182;8.734;2023-06-10T09:22:23;6.95;;;5.78;;
78013;SDS011;67222;50.182;8.734;2023-06-10T09:24:51;6.43;;;5.82;;
78013;SDS011;67222;50.182;8.734;2023-06-10T09:27:29;6.68;;;6.00;;
78013;SDS011;67222;50.182;8.734;2023-06-10T09:29:55;6.43;;;5.57;;
78013;SDS011;67222;50.182;8.734;2023-06-10T09:32:21;7.00;;;5.30;;
78013;SDS011;67222;50.182;8.734;2023-06-10T09:34:46;8.20;;;6.30;;
78013;SDS011;67222;50.182;8.734;2023-06-10T09:37:13;7.88;;;6.10;;
78013;SDS011;67222;50.182;8.734;2023-06-10T09:39:44;7.32;;;6.20;;
78013;SDS011;67222;50.182;8.734;2023-06-10T09:42:25;10.73;;;5.75;;
78013;SDS011;67222;50.182;8.734;2023-06-10T09:44:51;6.70;;;5.40;;
78013;SDS011;67222;50.182;8.734;2023-06-10T09:47:20;6.53;;;5.55;;
78013;SDS011;67222;50.182;8.734;2023-06-10T09:49:47;7.70;;;6.00;;
78013;SDS011;67222;50.182;8.734;2023-06-10T09:52:12;7.90;;;5.78;;
78013;SDS011;67222;50.182;8.734;2023-06-10T09:54:38;7.27;;;5.57;;
78013;SDS011;67222;50.182;8.734;2023-06-10T09:57:06;8.43;;;5.97;;
78013;SDS011;67222;50.182;8.734;2023-06-10T09:59:33;7.65;;;5.82;;
78013;SDS011;67222;50.182;8.734;2023-06-10T10:01:59;6.30;;;5.70;;
78013;SDS011;67222;50.182;8.734;2023-06-10T10:04:25;6.78;;;5.80;;
78013;SDS011;67222;50.182;8.734;2023-06-10T10:06:51;7.25;;;6.10;;
78013;SDS011;67222;50.182;8.734;2023-06-10T10:09:17;7.47;;;6.43;;
78013;SDS011;67222;50.182;8.734;2023-06-10T10:11:42;8.03;;;6.27;;
78013;SDS011;67222;50.182;8.734;2023-06-10T10:14:09;7.07;;;6.35;;
78013;SDS011;67222;50.182;8.734;2023-06-10T10:16:36;8.02;;;6.00;;
78013;SDS011;67222;50.182;8.734;2023-06-10T10:19:10;10.57;;;6.30;;
78013;SDS011;67222;50.182;8.734;2023-06-10T10:21:43;7.63;;;5.28;;
78013;SDS011;67222;50.182;8.734;2023-06-10T10:24:23;7.15;;;5.07;;
78013;SDS011;67222;50.182;8.734;2023-06-10T10:26:55;6.38;;;5.65;;
78013;SDS011;67222;50.182;8.734;2023-06-10T10:29:24;9.07;;;5.82;;
78013;SDS011;67222;50.182;8.734;2023-06-10T10:32:03;7.95;;;5.85;;
78013;SDS011;67222;50.182;8.734;2023-06-10T10:37:08;5.50;;;5.00;;
78013;SDS011;67222;50.182;8.734;2023-06-10T10:39:34;5.23;;;4.73;;
78013;SDS011;67222;50.182;8.734;2023-06-10T10:42:01;5.25;;;4.43;;
78013;SDS011;67222;50.182;8.734;2023-06-10T10:44:28;5.25;;;4.63;;
78013;SDS011;67222;50.182;8.734;2023-06-10T10:46:54;5.80;;;4.88;;
78013;SDS011;67222;50.182;8.734;2023-06-10T10:49:21;9.75;;;5.22;;
78013;SDS011;67222;50.182;8.734;2023-06-10T10:51:57;4.93;;;4.40;;
78013;SDS011;67222;50.182;8.734;2023-06-10T10:54:30;6.13;;;4.82;;
78013;SDS011;67222;50.182;8.734;2023-06-10T11:02:34;7.07;;;5.55;;
78013;SDS011;67222;50.182;8.734;2023-06-10T11:05:00;5.32;;;4.80;;
78013;SDS011;67222;50.182;8.734;2023-06-10T11:07:26;8.60;;;4.82;;
78013;SDS011;67222;50.182;8.734;2023-06-10T11:12:40;5.57;;;4.88;;
78013;SDS011;67222;50.182;8.734;2023-06-10T11:15:05;6.43;;;5.32;;
78013;SDS011;67222;50.182;8.734;2023-06-10T11:17:31;5.75;;;4.85;;
78013;SDS011;67222;50.182;8.734;2023-06-10T11:19:56;5.47;;;4.97;;
78013;SDS011;67222;50.182;8.734;2023-06-10T11:22:23;7.45;;;5.22;;
78013;SDS011;67222;50.182;8.734;2023-06-10T11:24:52;6.40;;;4.27;;
78013;SDS011;67222;50.182;8.734;2023-06-10T11:30:26;8.50;;;4.90;;
78013;SDS011;67222;50.182;8.734;2023-06-10T11:32:45;5.75;;;4.97;;
78013;SDS011;67222;50.182;8.734;2023-06-10T11:35:16;7.82;;;5.00;;
78013;SDS011;67222;50.182;8.734;2023-06-10T11:37:43;7.30;;;4.70;;
78013;SDS011;67222;50.182;8.734;2023-06-10T11:40:08;8.55;;;4.60;;
78013;SDS011;67222;50.182;8.734;2023-06-10T11:42:38;5.25;;;4.75;;
78013;SDS011;67222;50.182;8.734;2023-06-10T11:45:05;7.35;;;4.78;;
78013;SDS011;67222;50.182;8.734;2023-06-10T11:47:33;9.95;;;4.82;;
78013;SDS011;67222;50.182;8.734;2023-06-10T11:49:58;6.03;;;4.82;;
78013;SDS011;67222;50.182;8.734;2023-06-10T11:52:29;5.93;;;4.70;;
78013;SDS011;67222;50.182;8.734;2023-06-10T11:54:58;5.90;;;5.07;;
78013;SDS011;67222;50.182;8.734;2023-06-10T11:57:23;7.27;;;4.93;;
78013;SDS011;67222;50.182;8.734;2023-06-10T11:59:49;7.60;;;5.10;;
78013;SDS011;67222;50.182;8.734;2023-06-10T12:02:15;7.32;;;5.32;;
78013;SDS011;67222;50.182;8.734;2023-06-10T12:04:41;7.97;;;5.65;;
78013;SDS011;67222;50.182;8.734;2023-06-10T12:07:06;6.05;;;5.15;;
78013;SDS011;67222;50.182;8.734;2023-06-10T12:09:32;6.03;;;5.05;;
78013;SDS011;67222;50.182;8.734;2023-06-10T12:12:02;5.93;;;4.88;;
78013;SDS011;67222;50.182;8.734;2023-06-10T12:17:42;5.60;;;4.85;;
78013;SDS011;67222;50.182;8.734;2023-06-10T12:20:08;5.70;;;4.45;;
78013;SDS011;67222;50.182;8.734;2023-06-10T12:22:49;6.72;;;4.95;;
78013;SDS011;67222;50.182;8.734;2023-06-10T12:25:14;7.03;;;4.50;;
78013;SDS011;67222;50.182;8.734;2023-06-10T12:27:40;6.80;;;5.30;;
78013;SDS011;67222;50.182;8.734;2023-06-10T12:30:18;5.57;;;5.00;;
78013;SDS011;67222;50.182;8.734;2023-06-10T12:32:45;5.97;;;5.35;;
78013;SDS011;67222;50.182;8.734;2023-06-10T12:35:12;6.38;;;4.75;;
78013;SDS011;67222;50.182;8.734;2023-06-10T12:37:39;5.75;;;4.97;;
78013;SDS011;67222;50.182;8.734;2023-06-10T12:40:05;6.90;;;5.30;;
78013;SDS011;67222;50.182;8.734;2023-06-10T12:42:33;8.10;;;5.13;;
78013;SDS011;67222;50.182;8.734;2023-06-10T12:45:00;5.13;;;4.60;;
78013;SDS011;67222;50.182;8.734;2023-06-10T12:47:30;6.80;;;5.43;;
78013;SDS011;67222;50.182;8.734;2023-06-10T12:50:04;6.35;;;5.38;;
78013;SDS011;67222;50.182;8.734;2023-06-10T12:52:30;5.55;;;4.75;;
78013;SDS011;67222;50.182;8.734;2023-06-10T12:54:56;5.85;;;4.82;;
78013;SDS011;67222;50.182;8.734;2023-06-10T12:57:21;5.65;;;4.90;;
78013;SDS011;67222;50.182;8.734;2023-06-10T12:59:47;7.15;;;5.07;;
78013;SDS011;67222;50.182;8.734;2023-06-10T13:02:17;5.93;;;4.57;;
78013;SDS011;67222;50.182;8.734;2023-06-10T13:04:46;6.88;;;6.18;;
78013;SDS011;67222;50.182;8.734;2023-06-10T13:07:12;10.50;;;6.07;;
78013;SDS011;67222;50.182;8.734;2023-06-10T13:09:37;6.10;;;4.85;;
78013;SDS011;67222;50.182;8.734;2023-06-10T13:12:03;5.97;;;4.90;;
78013;SDS011;67222;50.182;8.734;2023-06-10T13:14:28;6.68;;;5.53;;
78013;SDS011;67222;50.182;8.734;2023-06-10T13:16:54;14.83;;;6.20;;
78013;SDS011;67222;50.182;8.734;2023-06-10T13:19:20;17.80;;;5.97;;
78013;SDS011;67222;50.182;8.734;2023-06-10T13:21:46;9.35;;;5.80;;
78013;SDS011;67222;50.182;8.734;2023-06-10T13:24:12;8.25;;;5.57;;
78013;SDS011;67222;50.182;8.734;2023-06-10T13:26:37;6.50;;;5.03;;
78013;SDS011;67222;50.182;8.734;2023-06-10T13:29:02;7.77;;;5.33;;
78013;SDS011;67222;50.182;8.734;2023-06-10T13:31:28;5.97;;;5.27;;
78013;SDS011;67222;50.182;8.734;2023-06-10T13:33:53;7.07;;;4.73;;
78013;SDS011;67222;50.182;8.734;2023-06-10T13:36:18;5.37;;;4.23;;
78013;SDS011;67222;50.182;8.734;2023-06-10T13:38:44;5.70;;;4.53;;
78013;SDS011;67222;50.182;8.734;2023-06-10T13:41:10;5.00;;;4.18;;
78013;SDS011;67222;50.182;8.734;2023-06-10T13:43:35;6.75;;;5.07;;
78013;SDS011;67222;50.182;8.734;2023-06-10T13:46:00;4.70;;;4.13;;
78013;SDS011;67222;50.182;8.734;2023-06-10T13:48:26;5.05;;;4.60;;
78013;SDS011;67222;50.182;8.734;2023-06-10T13:50:51;5.33;;;4.00;;
78013;SDS011;67222;50.182;8.734;2023-06-10T13:53:16;23.60;;;6.93;;
78013;SDS011;67222;50.182;8.734;2023-06-10T13:55:42;16.40;;;5.43;;
78013;SDS011;67222;50.182;8.734;2023-06-10T13:58:07;5.72;;;4.40;;
78013;SDS011;67222;50.182;8.734;2023-06-10T14:00:32;6.30;;;4.32;;
78013;SDS011;67222;50.182;8.734;2023-06-10T14:02:58;8.50;;;4.32;;
78013;SDS011;67222;50.182;8.734;2023-06-10T14:05:23;10.68;;;4.85;;
78013;SDS011;67222;50.182;8.734;2023-06-10T14:07:49;16.75;;;5.38;;
78013;SDS011;67222;50.182;8.734;2023-06-10T14:10:14;8.27;;;4.30;;
78013;SDS011;67222;50.182;8.734;2023-06-10T14:12:39;5.63;;;4.17;;
78013;SDS011;67222;50.182;8.734;2023-06-10T14:15:05;5.10;;;4.00;;
78013;SDS011;67222;50.182;8.734;2023-06-10T14:17:30;4.05;;;3.65;;
78013;SDS011;67222;50.182;8.734;2023-06-10T14:19:55;4.87;;;4.03;;
78013;SDS011;67222;50.182;8.734;2023-06-10T14:22:21;4.40;;;4.00;;
78013;SDS011;67222;50.182;8.734;2023-06-10T14:24:46;4.73;;;4.00;;
78013;SDS011;67222;50.182;8.734;2023-06-10T14:27:12;5.13;;;4.00;;
78013;SDS011;67222;50.182;8.734;2023-06-10T14:29:37;4.35;;;3.95;;
78013;SDS011;67222;50.182;8.734;2023-06-10T14:32:03;4.63;;;4.00;;
78013;SDS011;67222;50.182;8.734;2023-06-10T14:34:28;8.50;;;4.82;;
78013;SDS011;67222;50.182;8.734;2023-06-10T14:36:58;4.30;;;3.70;;
78013;SDS011;67222;50.182;8.734;2023-06-10T14:39:24;4.22;;;3.80;;
78013;SDS011;67222;50.182;8.734;2023-06-10T14:41:50;4.57;;;4.18;;
78013;SDS011;67222;50.182;8.734;2023-06-10T14:44:17;4.10;;;3.50;;
78013;SDS011;67222;50.182;8.734;2023-06-10T14:46:42;4.50;;;3.90;;
78013;SDS011;67222;50.182;8.734;2023-06-10T14:49:08;4.43;;;3.80;;
78013;SDS011;67222;50.182;8.734;2023-06-10T14:51:33;4.82;;;3.90;;
78013;SDS011;67222;50.182;8.734;2023-06-10T14:53:59;4.47;;;3.92;;
78013;SDS011;67222;50.182;8.734;2023-06-10T14:56:24;5.88;;;3.80;;
78013;SDS011;67222;50.182;8.734;2023-06-10T14:58:50;4.45;;;3.70;;
78013;SDS011;67222;50.182;8.734;2023-06-10T15:01:16;4.55;;;3.80;;
78013;SDS011;67222;50.182;8.734;2023-06-10T15:03:41;5.45;;;3.70;;
78013;SDS011;67222;50.182;8.734;2023-06-10T15:06:07;5.00;;;3.70;;
78013;SDS011;67222;50.182;8.734;2023-06-10T15:08:32;4.20;;;3.70;;
78013;SDS011;67222;50.182;8.734;2023-06-10T15:10:58;6.28;;;3.88;;
78013;SDS011;67222;50.182;8.734;2023-06-10T15:13:26;4.25;;;3.83;;
78013;SDS011;67222;50.182;8.734;2023-06-10T15:15:51;5.60;;;3.43;;
78013;SDS011;67222;50.182;8.734;2023-06-10T15:18:16;4.43;;;3.90;;
78013;SDS011;67222;50.182;8.734;2023-06-10T15:20:41;5.83;;;4.20;;
78013;SDS011;67222;50.182;8.734;2023-06-10T15:23:07;5.57;;;3.77;;
78013;SDS011;67222;50.182;8.734;2023-06-10T15:25:33;5.55;;;3.70;;
78013;SDS011;67222;50.182;8.734;2023-06-10T15:27:58;4.63;;;3.60;;
78013;SDS011;67222;50.182;8.734;2023-06-10T15:30:23;4.73;;;3.53;;
78013;SDS011;67222;50.182;8.734;2023-06-10T15:32:49;4.93;;;3.80;;
78013;SDS011;67222;50.182;8.734;2023-06-10T15:35:14;4.18;;;3.78;;
78013;SDS011;67222;50.182;8.734;2023-06-10T15:37:39;4.47;;;3.58;;
78013;SDS011;67222;50.182;8.734;2023-06-10T15:40:05;5.00;;;4.00;;
78013;SDS011;67222;50.182;8.734;2023-06-10T15:42:31;5.20;;;4.20;;
78013;SDS011;67222;50.182;8.734;2023-06-10T15:44:56;4.60;;;3.80;;
78013;SDS011;67222;50.182;8.734;2023-06-10T15:47:21;5.10;;;3.97;;
78013;SDS011;67222;50.182;8.734;2023-06-10T15:49:47;5.50;;;3.50;;
78013;SDS011;67222;50.182;8.734;2023-06-10T15:52:12;4.82;;;4.30;;
78013;SDS011;67222;50.182;8.734;2023-06-10T15:54:37;5.40;;;3.78;;
78013;SDS011;67222;50.182;8.734;2023-06-10T15:57:03;6.37;;;4.17;;
78013;SDS011;67222;50.182;8.734;2023-06-10T15:59:29;4.40;;;3.88;;
78013;SDS011;67222;50.182;8.734;2023-06-10T16:01:55;7.45;;;4.20;;
78013;SDS011;67222;50.182;8.734;2023-06-10T16:04:20;4.60;;;3.85;;
78013;SDS011;67222;50.182;8.734;2023-06-10T16:06:46;5.10;;;4.30;;
78013;SDS011;67222;50.182;8.734;2023-06-10T16:09:13;6.63;;;4.20;;
78013;SDS011;67222;50.182;8.734;2023-06-10T16:11:38;4.32;;;3.90;;
78013;SDS011;67222;50.182;8.734;2023-06-10T16:14:04;5.70;;;3.87;;
78013;SDS011;67222;50.182;8.734;2023-06-10T16:16:29;4.32;;;3.92;;
78013;SDS011;67222;50.182;8.734;2023-06-10T16:18:54;6.23;;;4.27;;
78013;SDS011;67222;50.182;8.734;2023-06-10T16:21:20;6.38;;;4.80;;
78013;SDS011;67222;50.182;8.734;2023-06-10T16:23:45;8.83;;;4.03;;
78013;SDS011;67222;50.182;8.734;2023-06-10T16:26:11;4.78;;;4.10;;
78013;SDS011;67222;50.182;8.734;2023-06-10T16:28:36;5.53;;;4.40;;
78013;SDS011;67222;50.182;8.734;2023-06-10T16:31:02;6.23;;;4.40;;
78013;SDS011;67222;50.182;8.734;2023-06-10T16:33:28;4.88;;;4.25;;
78013;SDS011;67222;50.182;8.734;2023-06-10T16:35:53;5.37;;;4.40;;
78013;SDS011;67222;50.182;8.734;2023-06-10T16:38:18;6.67;;;4.93;;
78013;SDS011;67222;50.182;8.734;2023-06-10T16:40:43;5.53;;;4.97;;
78013;SDS011;67222;50.182;8.734;2023-06-10T16:43:09;6.03;;;4.80;;
78013;SDS011;67222;50.182;8.734;2023-06-10T16:45:35;5.78;;;4.72;;
78013;SDS011;67222;50.182;8.734;2023-06-10T16:48:00;4.97;;;4.47;;
78013;SDS011;67222;50.182;8.734;2023-06-10T16:50:26;7.67;;;4.57;;
78013;SDS011;67222;50.182;8.734;2023-06-10T16:52:51;4.78;;;4.28;;
78013;SDS011;67222;50.182;8.734;2023-06-10T16:55:16;5.63;;;4.90;;
78013;SDS011;67222;50.182;8.734;2023-06-10T16:57:42;6.70;;;5.03;;
78013;SDS011;67222;50.182;8.734;2023-06-10T17:00:07;5.63;;;4.37;;
78013;SDS011;67222;50.182;8.734;2023-06-10T17:02:33;5.53;;;4.57;;
78013;SDS011;67222;50.182;8.734;2023-06-10T17:04:58;5.07;;;4.57;;
78013;SDS011;67222;50.182;8.734;2023-06-10T17:07:23;6.67;;;4.93;;
78013;SDS011;67222;50.182;8.734;2023-06-10T17:09:49;5.82;;;5.22;;
78013;SDS011;67222;50.182;8.734;2023-06-10T17:12:14;5.63;;;4.23;;
78013;SDS011;67222;50.182;8.734;2023-06-10T17:14:40;8.43;;;6.53;;
78013;SDS011;67222;50.182;8.734;2023-06-10T17:17:05;9.90;;;8.03;;
78013;SDS011;67222;50.182;8.734;2023-06-10T17:19:30;13.32;;;11.40;;
78013;SDS011;67222;50.182;8.734;2023-06-10T17:21:56;6.70;;;5.33;;
78013;SDS011;67222;50.182;8.734;2023-06-10T17:24:22;5.80;;;5.30;;
78013;SDS011;67222;50.182;8.734;2023-06-10T17:26:47;6.32;;;5.57;;
78013;SDS011;67222;50.182;8.734;2023-06-10T17:29:13;6.53;;;5.13;;
78013;SDS011;67222;50.182;8.734;2023-06-10T17:31:38;6.87;;;5.23;;
78013;SDS011;67222;50.182;8.734;2023-06-10T17:34:04;8.85;;;6.18;;
78013;SDS011;67222;50.182;8.734;2023-06-10T17:36:29;9.35;;;5.82;;
78013;SDS011;67222;50.182;8.734;2023-06-10T17:38:54;7.63;;;5.60;;
78013;SDS011;67222;50.182;8.734;2023-06-10T17:41:20;7.20;;;5.30;;
78013;SDS011;67222;50.182;8.734;2023-06-10T17:43:45;7.00;;;5.77;;
78013;SDS011;67222;50.182;8.734;2023-06-10T17:46:10;6.47;;;5.30;;
78013;SDS011;67222;50.182;8.734;2023-06-10T17:48:36;6.60;;;6.00;;
78013;SDS011;67222;50.182;8.734;2023-06-10T17:51:01;7.25;;;5.70;;
78013;SDS011;67222;50.182;8.734;2023-06-10T17:53:27;5.75;;;5.05;;
78013;SDS011;67222;50.182;8.734;2023-06-10T17:55:52;6.17;;;5.57;;
78013;SDS011;67222;50.182;8.734;2023-06-10T17:58:17;6.00;;;5.40;;
78013;SDS011;67222;50.182;8.734;2023-06-10T18:00:43;7.30;;;6.20;;
78013;SDS011;67222;50.182;8.734;2023-06-10T18:03:08;6.05;;;5.45;;
78013;SDS011;67222;50.182;8.734;2023-06-10T18:05:33;6.83;;;5.80;;
78013;SDS011;67222;50.182;8.734;2023-06-10T18:07:59;6.83;;;6.13;;
78013;SDS011;67222;50.182;8.734;2023-06-10T18:10:24;7.60;;;6.80;;
78013;SDS011;67222;50.182;8.734;2023-06-10T18:12:49;8.27;;;6.40;;
78013;SDS011;67222;50.182;8.734;2023-06-10T18:15:14;7.93;;;7.13;;
78013;SDS011;67222;50.182;8.734;2023-06-10T18:17:40;7.10;;;6.10;;
78013;SDS011;67222;50.182;8.734;2023-06-10T18:20:05;11.98;;;10.02;;
78013;SDS011;67222;50.182;8.734;2023-06-10T18:22:31;12.50;;;10.95;;
78013;SDS011;67222;50.182;8.734;2023-06-10T18:24:57;7.47;;;6.28;;
78013;SDS011;67222;50.182;8.734;2023-06-10T18:27:23;6.95;;;5.60;;
78013;SDS011;67222;50.182;8.734;2023-06-10T18:29:48;9.02;;;7.82;;
78013;SDS011;67222;50.182;8.734;2023-06-10T18:32:14;7.80;;;6.13;;
78013;SDS011;67222;50.182;8.734;2023-06-10T18:34:39;8.43;;;6.68;;
78013;SDS011;67222;50.182;8.734;2023-06-10T18:37:06;5.77;;;5.17;;
78013;SDS011;67222;50.182;8.734;2023-06-10T18:39:32;7.25;;;6.30;;
78013;SDS011;67222;50.182;8.734;2023-06-10T18:41:58;10.85;;;9.20;;
78013;SDS011;67222;50.182;8.734;2023-06-10T18:44:25;7.32;;;6.53;;
78013;SDS011;67222;50.182;8.734;2023-06-10T18:46:51;10.25;;;7.40;;
78013;SDS011;67222;50.182;8.734;2023-06-10T18:49:16;8.25;;;6.72;;
78013;SDS011;67222;50.182;8.734;2023-06-10T18:51:42;10.63;;;8.77;;
78013;SDS011;67222;50.182;8.734;2023-06-10T18:54:07;9.07;;;7.80;;
78013;SDS011;67222;50.182;8.734;2023-06-10T18:56:33;8.15;;;6.03;;
78013;SDS011;67222;50.182;8.734;2023-06-10T18:58:58;8.10;;;6.05;;
78013;SDS011;67222;50.182;8.734;2023-06-10T19:01:23;6.73;;;5.70;;
78013;SDS011;67222;50.182;8.734;2023-06-10T19:03:48;5.97;;;5.17;;
78013;SDS011;67222;50.182;8.734;2023-06-10T19:06:14;5.95;;;5.18;;
78013;SDS011;67222;50.182;8.734;2023-06-10T19:08:40;6.60;;;5.40;;
78013;SDS011;67222;50.182;8.734;2023-06-10T19:11:05;5.87;;;5.27;;
78013;SDS011;67222;50.182;8.734;2023-06-10T19:13:31;6.88;;;5.78;;
78013;SDS011;67222;50.182;8.734;2023-06-10T19:15:57;5.65;;;5.13;;
78013;SDS011;67222;50.182;8.734;2023-06-10T19:18:23;8.63;;;5.57;;
78013;SDS011;67222;50.182;8.734;2023-06-10T19:20:48;6.65;;;5.57;;
78013;SDS011;67222;50.182;8.734;2023-06-10T19:23:14;6.15;;;4.88;;
78013;SDS011;67222;50.182;8.734;2023-06-10T19:25:40;5.90;;;5.30;;
78013;SDS011;67222;50.182;8.734;2023-06-10T19:28:06;5.33;;;4.70;;
78013;SDS011;67222;50.182;8.734;2023-06-10T19:30:33;5.97;;;5.38;;
78013;SDS011;67222;50.182;8.734;2023-06-10T19:32:58;6.47;;;4.97;;
78013;SDS011;67222;50.182;8.734;2023-06-10T19:35:24;7.73;;;5.50;;
78013;SDS011;67222;50.182;8.734;2023-06-10T19:37:49;6.72;;;5.90;;
78013;SDS011;67222;50.182;8.734;2023-06-10T19:40:15;5.82;;;5.22;;
78013;SDS011;67222;50.182;8.734;2023-06-10T19:42:40;7.35;;;5.72;;
78013;SDS011;67222;50.182;8.734;2023-06-10T19:45:06;5.07;;;4.50;;
78013;SDS011;67222;50.182;8.734;2023-06-10T19:47:32;6.20;;;5.50;;
78013;SDS011;67222;50.182;8.734;2023-06-10T19:49:57;5.63;;;4.95;;
78013;SDS011;67222;50.182;8.734;2023-06-10T19:52:23;6.33;;;5.30;;
78013;SDS011;67222;50.182;8.734;2023-06-10T19:54:49;5.93;;;5.15;;
78013;SDS011;67222;50.182;8.734;2023-06-10T19:57:15;5.60;;;4.68;;
78013;SDS011;67222;50.182;8.734;2023-06-10T19:59:40;6.07;;;5.03;;
78013;SDS011;67222;50.182;8.734;2023-06-10T20:02:05;6.73;;;5.60;;
78013;SDS011;67222;50.182;8.734;2023-06-10T20:04:31;5.60;;;5.00;;
78013;SDS011;67222;50.182;8.734;2023-06-10T20:06:56;6.30;;;5.40;;
78013;SDS011;67222;50.182;8.734;2023-06-10T20:09:21;6.40;;;5.57;;
78013;SDS011;67222;50.182;8.734;2023-06-10T20:11:47;6.77;;;5.47;;
78013;SDS011;67222;50.182;8.734;2023-06-10T20:14:12;6.00;;;5.27;;
78013;SDS011;67222;50.182;8.734;2023-06-10T20:16:38;6.45;;;5.60;;
78013;SDS011;67222;50.182;8.734;2023-06-10T20:19:03;6.90;;;5.67;;
78013;SDS011;67222;50.182;8.734;2023-06-10T20:21:29;7.37;;;5.37;;
78013;SDS011;67222;50.182;8.734;2023-06-10T20:23:54;6.60;;;5.28;;
78013;SDS011;67222;50.182;8.734;2023-06-10T20:26:19;6.47;;;5.20;;
78013;SDS011;67222;50.182;8.734;2023-06-10T20:28:45;6.57;;;5.55;;
78013;SDS011;67222;50.182;8.734;2023-06-10T20:31:11;6.13;;;5.07;;